createdAt,value
2023-01-13T00:00:57.891Z,10.00
2023-01-13T00:05:00.908Z,10.10
2023-01-13T00:09:04.099Z,10.10
2023-01-13T00:13:07.107Z,10.10
2023-01-13T00:17:11.640Z,10.10
2023-01-13T00:21:16.735Z,10.10
2023-01-13T00:25:19.730Z,10.10
2023-01-13T00:29:22.835Z,10.10
2023-01-13T00:33:27.347Z,10.10
2023-01-13T00:37:30.417Z,10.20
2023-01-13T00:41:53.374Z,10.10
2023-01-13T00:45:56.653Z,10.10
2023-01-13T00:50:01.084Z,10.10
2023-01-13T00:54:04.253Z,10.10
2023-01-13T00:58:07.236Z,10.10
2023-01-13T01:02:10.396Z,10.00
2023-01-13T01:06:17.442Z,10.10
2023-01-13T01:10:20.630Z,10.10
2023-01-13T01:14:23.612Z,10.10
2023-01-13T01:18:26.746Z,10.10
2023-01-13T01:22:31.131Z,10.10
2023-01-13T01:26:34.332Z,10.20
2023-01-13T01:30:39.576Z,10.10
2023-01-13T01:34:42.556Z,9.90
2023-01-13T01:38:47.129Z,9.90
2023-01-13T01:43:10.670Z,9.80
2023-01-13T01:47:17.816Z,9.90
2023-01-13T01:51:20.857Z,9.90
2023-01-13T01:55:28.527Z,10.00
2023-01-13T01:59:36.159Z,10.00
2023-01-13T02:03:46.863Z,10.10
2023-01-13T02:07:52.510Z,10.00
2023-01-13T02:12:13.407Z,10.10
2023-01-13T02:16:23.033Z,10.10
2023-01-13T02:20:52.227Z,10.00
2023-01-13T02:25:13.277Z,10.00
2023-01-13T02:29:59.404Z,9.90
2023-01-13T02:34:08.347Z,9.90
2023-01-13T02:38:13.811Z,9.90
2023-01-13T02:42:41.288Z,9.80
2023-01-13T02:46:51.223Z,9.70
2023-01-13T02:51:00.762Z,9.70
2023-01-13T02:55:07.816Z,9.70
2023-01-13T02:59:11.710Z,9.70
2023-01-13T03:03:16.272Z,9.70
2023-01-13T03:07:48.634Z,9.80
2023-01-13T03:12:00.377Z,9.70
2023-01-13T03:16:12.196Z,9.70
2023-01-13T03:20:22.719Z,9.60
2023-01-13T03:24:31.475Z,9.60
2023-01-13T03:28:38.814Z,9.50
2023-01-13T03:38:34.163Z,9.40
2023-01-13T03:42:38.945Z,9.30
2023-01-13T03:46:49.028Z,9.30
2023-01-13T03:50:55.077Z,9.20
2023-01-13T03:55:02.691Z,9.10
2023-01-13T03:59:09.952Z,9.00
2023-01-13T04:03:18.313Z,9.00
2023-01-13T04:07:28.263Z,8.90
2023-01-13T04:11:36.799Z,8.90
2023-01-13T04:15:41.852Z,8.80
2023-01-13T04:19:44.648Z,8.70
2023-01-13T04:23:51.278Z,8.70
2023-01-13T04:27:55.415Z,8.70
2023-01-13T04:31:58.165Z,8.70
2023-01-13T04:36:00.947Z,8.70
2023-01-13T04:40:03.808Z,8.60
2023-01-13T04:44:08.292Z,8.60
2023-01-13T04:48:11.465Z,8.50
2023-01-13T04:52:14.278Z,8.40
2023-01-13T04:56:17.012Z,8.30
2023-01-13T05:00:23.496Z,8.20
2023-01-13T05:04:26.440Z,8.10
2023-01-13T05:08:29.379Z,8.10
2023-01-13T05:12:49.636Z,8.10
2023-01-13T05:17:03.404Z,8.00
2023-01-13T05:21:28.481Z,7.90
2023-01-13T05:25:30.313Z,7.80
2023-01-13T05:29:33.045Z,7.70
2023-01-13T05:33:37.207Z,7.70
2023-01-13T05:37:40.301Z,7.60
2023-01-13T05:42:00.585Z,7.60
2023-01-13T05:46:05.812Z,7.70
2023-01-13T05:50:11.861Z,7.60
2023-01-13T05:54:20.881Z,7.70
2023-01-13T05:58:26.197Z,7.70
2023-01-13T06:02:29.215Z,7.80
2023-01-13T06:06:33.573Z,7.70
2023-01-13T06:10:36.879Z,7.80
2023-01-13T06:14:40.880Z,7.90
2023-01-13T06:18:43.683Z,7.90
2023-01-13T06:22:49.939Z,8.10
2023-01-13T06:26:52.925Z,8.10
2023-01-13T06:30:59.618Z,8.20
2023-01-13T06:35:08.264Z,8.20
2023-01-13T06:39:17.179Z,8.20
2023-01-13T06:43:20.007Z,8.10
2023-01-13T06:47:23.676Z,8.10
2023-01-13T06:51:26.566Z,8.10
2023-01-13T06:55:30.706Z,8.00
2023-01-13T06:59:35.232Z,8.00
2023-01-13T07:03:38.010Z,7.90
2023-01-13T07:07:40.939Z,7.90
2023-01-13T07:11:45.134Z,7.90
2023-01-13T07:15:56.772Z,7.90
2023-01-13T07:19:59.521Z,7.90
2023-01-13T07:24:02.344Z,8.00
2023-01-13T07:28:06.535Z,8.00
2023-01-13T07:32:09.317Z,8.10
2023-01-13T07:36:12.499Z,8.00
2023-01-13T07:40:15.776Z,8.00
2023-01-13T07:44:20.316Z,8.00
2023-01-13T07:48:23.131Z,7.90
2023-01-13T07:52:25.885Z,7.90
2023-01-13T07:56:28.730Z,7.90
2023-01-13T08:00:32.908Z,7.90
2023-01-13T08:04:35.805Z,8.00
2023-01-13T08:08:39.096Z,8.00
2023-01-13T08:12:59.730Z,8.00
2023-01-13T08:17:03.871Z,8.10
2023-01-13T08:21:08.858Z,8.10
2023-01-13T08:25:11.759Z,8.10
2023-01-13T08:29:15.114Z,8.10
2023-01-13T08:33:33.656Z,8.20
2023-01-13T08:37:36.593Z,8.20
2023-01-13T08:41:56.267Z,8.30
2023-01-13T08:46:00.937Z,8.30
2023-01-13T08:50:06.052Z,8.40
2023-01-13T08:54:08.991Z,8.40
2023-01-13T08:58:15.763Z,8.60
2023-01-13T09:02:21.221Z,8.80
2023-01-13T09:06:25.460Z,8.90
2023-01-13T09:10:28.213Z,8.80
2023-01-13T09:14:35.209Z,8.80
2023-01-13T09:18:37.957Z,8.80
2023-01-13T09:22:42.034Z,8.70
2023-01-13T09:26:44.857Z,8.70
2023-01-13T09:30:47.609Z,8.70
2023-01-13T09:35:02.443Z,8.80
2023-01-13T09:39:06.774Z,8.90
2023-01-13T09:43:36.732Z,8.90
2023-01-13T09:47:43.479Z,8.90
2023-01-13T09:51:53.519Z,8.80
2023-01-13T09:55:57.774Z,8.80
2023-01-13T10:00:00.590Z,8.70
2023-01-13T10:04:04.876Z,8.70
2023-01-13T10:08:12.755Z,8.70
2023-01-13T10:12:41.105Z,8.80
2023-01-13T10:16:49.885Z,8.80
2023-01-13T10:21:00.295Z,8.90
2023-01-13T10:25:21.244Z,9.00
2023-01-13T10:29:27.796Z,9.20
2023-01-13T10:33:30.574Z,9.20
2023-01-13T10:37:33.360Z,9.10
2023-01-13T10:41:36.989Z,9.00
2023-01-13T10:45:41.069Z,9.00
2023-01-13T10:49:43.785Z,8.90
2023-01-13T10:53:51.064Z,8.90
2023-01-13T10:57:54.080Z,8.90
2023-01-13T11:02:04.010Z,9.00
2023-01-13T11:06:09.980Z,9.00
2023-01-13T11:10:21.663Z,9.10
2023-01-13T11:14:42.544Z,9.10
2023-01-13T11:19:11.655Z,9.10
2023-01-13T11:23:21.825Z,9.10
2023-01-13T11:27:34.977Z,9.10
2023-01-13T11:31:42.601Z,9.10
2023-01-13T11:35:52.010Z,9.20
2023-01-13T11:40:01.474Z,9.20
2023-01-13T11:44:16.598Z,9.20
2023-01-13T11:48:23.203Z,9.10
2023-01-13T11:52:43.067Z,9.10
2023-01-13T11:57:11.572Z,9.10
2023-01-13T12:01:28.102Z,9.00
2023-01-13T12:05:37.514Z,9.10
2023-01-13T12:09:54.599Z,9.00
2023-01-13T12:14:15.586Z,9.10
2023-01-13T12:18:42.913Z,9.10
2023-01-13T12:22:47.227Z,9.20
2023-01-13T12:26:56.618Z,9.20
2023-01-13T12:31:02.608Z,9.30
2023-01-13T12:35:20.790Z,9.30
2023-01-13T12:39:34.034Z,9.30
2023-01-13T12:43:56.620Z,9.30
2023-01-13T12:48:00.532Z,9.40
2023-01-13T12:52:15.517Z,9.40
2023-01-13T12:56:29.490Z,9.30
2023-01-13T13:00:52.993Z,9.30
2023-01-13T13:04:57.849Z,9.30
2023-01-13T13:09:04.247Z,9.20
2023-01-13T13:13:20.756Z,9.00
2023-01-13T13:18:01.200Z,8.80
2023-01-13T13:22:37.794Z,8.60
2023-01-13T13:26:45.680Z,8.50
2023-01-13T13:31:20.393Z,8.40
2023-01-13T13:35:42.358Z,8.30
2023-01-13T13:40:04.310Z,8.30
2023-01-13T13:44:32.964Z,8.20
2023-01-13T13:48:35.712Z,8.10
2023-01-13T13:52:42.753Z,7.80
2023-01-13T13:56:47.729Z,7.60
2023-01-13T14:00:50.864Z,7.50
2023-01-13T14:05:09.743Z,7.40
2023-01-13T14:09:19.975Z,7.50
2023-01-13T14:13:24.906Z,7.50
2023-01-13T14:17:29.500Z,7.50
2023-01-13T14:21:32.617Z,7.50
2023-01-13T14:25:39.739Z,7.50
2023-01-13T14:29:42.847Z,7.60
2023-01-13T14:33:47.768Z,7.60
2023-01-13T14:37:54.263Z,7.70
2023-01-13T14:41:58.537Z,7.70
2023-01-13T14:46:03.341Z,7.80
2023-01-13T14:50:18.564Z,7.80
2023-01-13T14:54:50.252Z,7.80
2023-01-13T14:58:54.397Z,7.70
2023-01-13T15:03:08.392Z,7.60
2023-01-13T15:07:25.631Z,7.40
2023-01-13T15:11:29.771Z,7.00
2023-01-13T15:15:36.092Z,6.60
2023-01-13T15:19:38.845Z,6.50
2023-01-13T15:23:41.627Z,6.40
2023-01-13T15:27:46.257Z,6.40
2023-01-13T15:31:50.295Z,6.50
2023-01-13T15:35:55.896Z,6.60
2023-01-13T15:39:58.953Z,6.60
2023-01-13T15:44:19.268Z,6.60
2023-01-13T15:48:25.147Z,6.60
2023-01-13T15:52:28.731Z,6.60
2023-01-13T15:56:31.662Z,6.60
2023-01-13T16:00:35.100Z,6.60
2023-01-13T16:04:39.473Z,6.60
2023-01-13T16:08:42.254Z,6.70
2023-01-13T16:12:45.089Z,6.80
2023-01-13T16:16:47.898Z,6.90
2023-01-13T16:20:55.011Z,6.90
2023-01-13T16:24:57.869Z,7.00
2023-01-13T16:29:00.650Z,7.10
2023-01-13T16:33:03.845Z,7.10
2023-01-13T16:37:18.585Z,7.10
2023-01-13T16:41:24.730Z,7.00
2023-01-13T16:45:28.323Z,7.00
2023-01-13T16:49:31.207Z,7.00
2023-01-13T16:53:35.765Z,6.90
2023-01-13T16:57:38.701Z,6.90
2023-01-13T17:01:43.320Z,6.90
2023-01-13T17:05:47.880Z,6.80
2023-01-13T17:09:52.563Z,6.80
2023-01-13T17:13:55.459Z,6.70
2023-01-13T17:17:58.363Z,6.60
2023-01-13T17:22:01.289Z,6.60
2023-01-13T17:26:05.806Z,6.50
2023-01-13T17:30:10.196Z,6.60
2023-01-13T17:34:13.727Z,6.70
2023-01-13T17:38:16.928Z,6.70
2023-01-13T17:42:25.095Z,6.70
2023-01-13T17:46:28.103Z,6.70
2023-01-13T17:50:32.587Z,6.80
2023-01-13T17:54:35.502Z,6.80
2023-01-13T17:58:41.572Z,6.90
2023-01-13T18:02:44.653Z,7.00
2023-01-13T18:06:48.453Z,7.00
2023-01-13T18:10:52.979Z,7.00
2023-01-13T18:14:57.227Z,7.10
2023-01-13T18:19:15.127Z,7.20
2023-01-13T18:23:37.253Z,7.20
2023-01-13T18:27:41.676Z,7.20
2023-01-13T18:31:46.270Z,7.30
2023-01-13T18:35:49.192Z,7.40
2023-01-13T18:39:52.336Z,7.40
2023-01-13T18:43:55.208Z,7.40
2023-01-13T18:48:01.687Z,7.40
2023-01-13T18:52:05.146Z,7.40
2023-01-13T18:56:11.837Z,7.40
2023-01-13T19:00:17.420Z,7.40
2023-01-13T19:04:21.648Z,7.40
2023-01-13T19:08:24.937Z,7.40
2023-01-13T19:12:30.438Z,7.40
2023-01-13T19:16:33.285Z,7.40
2023-01-13T19:20:39.156Z,7.40
2023-01-13T19:24:42.536Z,7.40
2023-01-13T19:28:45.395Z,7.40
2023-01-13T19:32:48.683Z,7.40
2023-01-13T19:36:53.936Z,7.40
2023-01-13T19:40:58.419Z,7.30
2023-01-13T19:45:18.966Z,7.30
2023-01-13T19:49:21.810Z,7.30
2023-01-13T19:53:26.487Z,7.30
2023-01-13T19:57:29.540Z,7.40
2023-01-13T20:01:36.248Z,7.40
2023-01-13T20:05:39.293Z,7.40
2023-01-13T20:09:44.934Z,7.30
2023-01-13T20:13:48.106Z,7.40
2023-01-13T20:17:51.358Z,7.40
2023-01-13T20:21:54.185Z,7.40
2023-01-13T20:25:59.464Z,7.40
2023-01-13T20:30:02.456Z,7.40
2023-01-13T20:34:05.601Z,7.40
2023-01-13T20:38:08.962Z,7.40
2023-01-13T20:42:31.941Z,7.50
2023-01-13T20:46:34.951Z,7.50
2023-01-13T20:50:38.031Z,7.50
2023-01-13T20:54:42.007Z,7.50
2023-01-13T20:58:46.155Z,7.50
2023-01-13T21:02:49.142Z,7.50
2023-01-13T21:06:52.400Z,7.50
2023-01-13T21:11:02.315Z,7.50
2023-01-13T21:15:21.783Z,7.60
2023-01-13T21:19:24.816Z,7.60
2023-01-13T21:23:27.637Z,7.60
2023-01-13T21:27:30.907Z,7.50
2023-01-13T21:31:35.084Z,7.40
2023-01-13T21:35:41.197Z,7.30
2023-01-13T21:39:44.207Z,7.30
2023-01-13T21:44:04.657Z,7.30
2023-01-13T21:48:09.197Z,7.20
2023-01-13T21:52:12.639Z,7.20
2023-01-13T21:56:15.564Z,7.10
2023-01-13T22:00:20.238Z,7.10
2023-01-13T22:04:24.369Z,7.00
2023-01-13T22:08:27.100Z,7.00
2023-01-13T22:12:30.244Z,6.90
2023-01-13T22:16:36.011Z,7.00
2023-01-13T22:20:41.211Z,7.00
2023-01-13T22:24:45.450Z,7.00
2023-01-13T22:28:48.231Z,7.10
2023-01-13T22:32:50.985Z,7.10
2023-01-13T22:36:55.054Z,7.00
2023-01-13T22:40:58.732Z,7.00
2023-01-13T22:45:01.469Z,7.00
2023-01-13T22:49:04.482Z,7.00
2023-01-13T22:53:08.546Z,7.00
2023-01-13T22:57:11.302Z,7.00
2023-01-13T23:01:16.180Z,7.00
2023-01-13T23:05:18.949Z,7.00
2023-01-13T23:09:23.082Z,7.00
2023-01-13T23:13:25.829Z,7.00
2023-01-13T23:17:28.597Z,7.00
2023-01-13T23:21:33.805Z,7.00
2023-01-13T23:25:37.835Z,7.00
2023-01-13T23:29:40.784Z,7.00
2023-01-13T23:33:44.670Z,7.10
2023-01-13T23:37:47.499Z,7.10
2023-01-13T23:41:51.713Z,7.10
2023-01-13T23:46:06.543Z,7.00
2023-01-13T23:50:10.574Z,7.00
2023-01-13T23:54:13.332Z,6.90
2023-01-13T23:58:19.524Z,6.90
